createdAt,value
2017-12-23T00:00:48.130Z,102829.50
2017-12-23T00:03:16.449Z,102823.44
2017-12-23T00:05:45.762Z,102826.38
2017-12-23T00:08:14.091Z,102826.84
2017-12-23T00:10:42.438Z,102823.42
2017-12-23T00:13:10.766Z,102811.08
2017-12-23T00:15:39.114Z,102797.88
2017-12-23T00:18:07.417Z,102795.06
2017-12-23T00:20:35.774Z,102802.37
2017-12-23T00:23:04.102Z,102805.84
2017-12-23T00:25:32.457Z,102805.64
2017-12-23T00:28:00.789Z,102813.37
2017-12-23T00:30:29.146Z,102805.45
2017-12-23T00:32:57.473Z,102799.39
2017-12-23T00:35:25.825Z,102791.17
2017-12-23T00:37:54.157Z,102792.95
2017-12-23T00:40:22.513Z,102793.53
2017-12-23T00:42:50.850Z,102789.94
2017-12-23T00:45:19.193Z,102778.25
2017-12-23T00:47:47.529Z,102772.06
2017-12-23T00:50:21.885Z,102766.34
2017-12-23T00:52:50.222Z,102764.67
2017-12-23T00:55:19.532Z,102759.69
2017-12-23T00:57:47.854Z,102750.29
2017-12-23T01:00:16.202Z,102746.81
2017-12-23T01:02:44.533Z,102754.39
2017-12-23T01:05:12.878Z,102748.76
2017-12-23T01:07:41.209Z,102739.42
2017-12-23T01:10:09.570Z,102727.98
2017-12-23T01:12:37.894Z,102713.87
2017-12-23T01:15:06.247Z,102705.26
2017-12-23T01:17:34.582Z,102708.68
2017-12-23T01:20:02.934Z,102713.17
2017-12-23T01:22:31.254Z,102708.83
2017-12-23T01:24:59.626Z,102703.14
2017-12-23T01:27:27.958Z,102703.59
2017-12-23T01:29:56.315Z,102703.16
2017-12-23T01:32:24.662Z,102703.19
2017-12-23T01:34:53.766Z,102692.75
2017-12-23T01:37:22.164Z,102688.85
2017-12-23T01:39:50.443Z,102695.78
2017-12-23T01:42:18.786Z,102682.21
2017-12-23T01:44:47.114Z,102683.52
2017-12-23T01:47:15.461Z,102693.14
2017-12-23T01:49:43.793Z,102694.91
2017-12-23T01:52:12.142Z,102685.30
2017-12-23T01:54:40.465Z,102680.47
2017-12-23T01:57:08.880Z,102680.47
2017-12-23T01:59:37.201Z,102665.48
2017-12-23T02:02:05.559Z,102667.72
2017-12-23T02:04:33.925Z,102659.34
2017-12-23T02:07:02.281Z,102646.94
2017-12-23T02:09:30.606Z,102632.48
2017-12-23T02:11:58.952Z,102629.38
2017-12-23T02:14:27.281Z,102620.56
2017-12-23T02:16:55.625Z,102610.12
2017-12-23T02:19:23.954Z,102613.16
2017-12-23T02:21:52.302Z,102613.61
2017-12-23T02:24:20.630Z,102615.84
2017-12-23T02:26:48.986Z,102613.26
2017-12-23T02:29:17.313Z,102609.69
2017-12-23T02:31:45.670Z,102599.20
2017-12-23T02:34:14.002Z,102593.97
2017-12-23T02:36:42.346Z,102594.89
2017-12-23T02:39:10.679Z,102585.22
2017-12-23T02:41:39.026Z,102589.21
2017-12-23T02:44:07.355Z,102593.20
2017-12-23T02:46:35.710Z,102602.46
2017-12-23T02:49:04.043Z,102609.51
2017-12-23T02:51:32.394Z,102607.40
2017-12-23T02:54:00.727Z,102605.30
2017-12-23T02:56:29.077Z,102602.22
2017-12-23T02:58:57.403Z,102600.52
2017-12-23T03:01:25.746Z,102599.76
2017-12-23T03:03:54.076Z,102587.03
2017-12-23T03:06:22.422Z,102577.82
2017-12-23T03:08:50.754Z,102572.58
2017-12-23T03:11:19.106Z,102576.95
2017-12-23T03:13:47.438Z,102576.97
2017-12-23T03:16:15.794Z,102575.69
2017-12-23T03:18:44.121Z,102577.48
2017-12-23T03:21:12.493Z,102584.02
2017-12-23T03:23:40.825Z,102577.02
2017-12-23T03:26:09.169Z,102577.02
2017-12-23T03:28:37.500Z,102577.05
2017-12-23T03:31:05.898Z,102568.77
2017-12-23T03:33:34.213Z,102557.30
2017-12-23T03:36:02.549Z,102544.58
2017-12-23T03:38:30.902Z,102546.37
2017-12-23T03:40:59.238Z,102539.80
2017-12-23T03:43:27.594Z,102536.30
2017-12-23T03:45:55.926Z,102527.50
2017-12-23T03:48:24.285Z,102531.01
2017-12-23T03:50:52.618Z,102529.71
2017-12-23T03:53:20.978Z,102524.05
2017-12-23T03:55:49.320Z,102525.30
2017-12-23T03:58:17.674Z,102520.53
2017-12-23T04:00:46.005Z,102503.81
2017-12-23T04:03:14.366Z,102509.94
2017-12-23T04:05:42.703Z,102514.81
2017-12-23T04:08:11.577Z,102511.30
2017-12-23T04:10:39.914Z,102510.42
2017-12-23T04:13:08.265Z,102509.55
2017-12-23T04:15:36.605Z,102502.08
2017-12-23T04:18:04.975Z,102507.78
2017-12-23T04:20:33.314Z,102494.59
2017-12-23T04:23:01.673Z,102499.42
2017-12-23T04:25:30.010Z,102488.46
2017-12-23T04:27:58.372Z,102491.10
2017-12-23T04:30:26.710Z,102498.13
2017-12-23T04:32:55.061Z,102494.20
2017-12-23T04:35:23.402Z,102495.07
2017-12-23T04:37:51.769Z,102502.58
2017-12-23T04:40:20.111Z,102496.84
2017-12-23T04:42:48.466Z,102505.23
2017-12-23T04:45:16.808Z,102504.78
2017-12-23T04:47:45.171Z,102495.97
2017-12-23T04:50:13.497Z,102497.73
2017-12-23T04:52:41.857Z,102484.99
2017-12-23T04:55:10.193Z,102476.64
2017-12-23T04:57:38.553Z,102474.00
2017-12-23T05:00:06.885Z,102462.58
2017-12-23T05:02:35.247Z,102446.30
2017-12-23T05:05:03.587Z,102451.58
2017-12-23T05:07:31.953Z,102447.61
2017-12-23T05:10:00.286Z,102445.42
2017-12-23T05:12:28.706Z,102442.78
2017-12-23T05:14:57.013Z,102440.14
2017-12-23T05:17:25.370Z,102441.45
2017-12-23T05:19:53.705Z,102435.28
2017-12-23T05:22:22.057Z,102426.06
2017-12-23T05:24:50.393Z,102425.17
2017-12-23T05:27:18.756Z,102426.06
2017-12-23T05:29:47.078Z,102425.61
2017-12-23T05:32:15.458Z,102418.58
2017-12-23T05:34:43.789Z,102417.23
2017-12-23T05:37:12.126Z,102411.52
2017-12-23T05:39:40.477Z,102408.88
2017-12-23T05:42:08.810Z,102418.53
2017-12-23T05:44:37.157Z,102426.89
2017-12-23T05:47:05.485Z,102423.81
2017-12-23T05:49:33.846Z,102421.16
2017-12-23T05:52:02.197Z,102429.08
2017-12-23T05:54:30.541Z,102429.51
2017-12-23T05:56:58.878Z,102420.26
2017-12-23T05:59:27.234Z,102409.67
2017-12-23T06:01:55.637Z,102418.50
2017-12-23T06:04:23.990Z,102414.05
2017-12-23T06:06:52.326Z,102410.55
2017-12-23T06:09:20.688Z,102414.52
2017-12-23T06:11:49.013Z,102418.00
2017-12-23T06:14:17.367Z,102415.78
2017-12-23T06:16:45.702Z,102412.24
2017-12-23T06:19:14.063Z,102406.96
2017-12-23T06:21:42.396Z,102398.14
2017-12-23T06:24:10.761Z,102403.00
2017-12-23T06:26:39.078Z,102398.59
2017-12-23T06:29:07.438Z,102398.58
2017-12-23T06:31:35.781Z,102391.08
2017-12-23T06:34:04.126Z,102386.23
2017-12-23T06:36:32.463Z,102388.38
2017-12-23T06:39:00.810Z,102390.17
2017-12-23T06:41:29.142Z,102375.60
2017-12-23T06:43:57.538Z,102371.16
2017-12-23T06:46:25.830Z,102369.81
2017-12-23T06:48:54.179Z,102381.27
2017-12-23T06:51:22.502Z,102381.27
2017-12-23T06:53:50.849Z,102372.92
2017-12-23T06:56:19.183Z,102370.28
2017-12-23T06:58:47.555Z,102369.80
2017-12-23T07:01:15.854Z,102370.25
2017-12-23T07:03:44.197Z,102369.78
2017-12-23T07:06:12.528Z,102369.80
2017-12-23T07:08:40.870Z,102371.09
2017-12-23T07:11:09.194Z,102374.59
2017-12-23T07:13:37.542Z,102371.96
2017-12-23T07:16:05.870Z,102379.47
2017-12-23T07:18:34.214Z,102387.80
2017-12-23T07:21:02.538Z,102384.23
2017-12-23T07:23:30.882Z,102380.33
2017-12-23T07:25:59.206Z,102388.22
2017-12-23T07:28:27.551Z,102387.31
2017-12-23T07:30:55.886Z,102392.17
2017-12-23T07:33:24.237Z,102395.28
2017-12-23T07:35:52.558Z,102390.84
2017-12-23T07:38:20.882Z,102383.80
2017-12-23T07:43:23.737Z,102383.35
2017-12-23T07:45:52.083Z,102371.89
2017-12-23T07:48:20.394Z,102370.13
2017-12-23T07:50:48.741Z,102370.98
2017-12-23T07:53:17.058Z,102372.36
2017-12-23T07:55:45.398Z,102363.98
2017-12-23T07:58:13.714Z,102371.91
2017-12-23T08:00:42.062Z,102371.45
2017-12-23T08:03:10.387Z,102358.67
2017-12-23T08:05:38.729Z,102356.44
2017-12-23T08:08:07.050Z,102361.31
2017-12-23T08:10:35.392Z,102349.85
2017-12-23T08:13:03.882Z,102354.27
2017-12-23T08:15:32.969Z,102352.08
2017-12-23T08:18:01.407Z,102346.80
2017-12-23T08:20:30.817Z,102345.81
2017-12-23T08:22:59.158Z,102341.00
2017-12-23T08:25:28.418Z,102343.20
2017-12-23T08:27:56.963Z,102341.87
2017-12-23T08:30:25.311Z,102347.53
2017-12-23T08:32:53.642Z,102349.81
2017-12-23T08:35:21.994Z,102344.89
2017-12-23T08:37:50.318Z,102351.50
2017-12-23T08:40:18.670Z,102355.02
2017-12-23T08:42:47.015Z,102362.97
2017-12-23T08:45:16.453Z,102368.64
2017-12-23T08:47:44.761Z,102375.72
2017-12-23T08:50:13.122Z,102378.39
2017-12-23T08:52:41.450Z,102375.77
2017-12-23T08:55:09.848Z,102374.89
2017-12-23T08:57:38.378Z,102376.21
2017-12-23T09:00:06.727Z,102371.36
2017-12-23T09:02:35.063Z,102365.61
2017-12-23T09:05:03.471Z,102371.80
2017-12-23T09:07:31.762Z,102365.66
2017-12-23T09:10:00.217Z,102357.72
2017-12-23T09:12:28.585Z,102365.63
2017-12-23T09:14:56.935Z,102374.94
2017-12-23T09:17:25.276Z,102364.35
2017-12-23T09:19:54.558Z,102346.80
2017-12-23T09:22:23.050Z,102336.17
2017-12-23T09:24:51.418Z,102324.74
2017-12-23T09:27:19.758Z,102328.67
2017-12-23T09:29:48.300Z,102332.67
2017-12-23T09:32:17.170Z,102336.61
2017-12-23T09:34:45.898Z,102329.13
2017-12-23T09:37:14.547Z,102333.52
2017-12-23T09:39:43.691Z,102331.81
2017-12-23T09:42:12.805Z,102332.18
2017-12-23T09:44:41.521Z,102344.52
2017-12-23T09:47:10.215Z,102346.28
2017-12-23T09:49:39.351Z,102355.56
2017-12-23T09:52:08.062Z,102364.79
2017-12-23T09:54:36.654Z,102360.37
2017-12-23T09:57:05.815Z,102363.87
2017-12-23T09:59:34.444Z,102372.69
2017-12-23T10:02:05.256Z,102355.00
2017-12-23T10:04:33.880Z,102349.77
2017-12-23T10:07:02.472Z,102358.58
2017-12-23T10:09:31.160Z,102348.86
2017-12-23T10:11:59.901Z,102343.55
2017-12-23T10:14:28.510Z,102347.02
2017-12-23T10:16:58.934Z,102338.23
2017-12-23T10:19:27.618Z,102328.03
2017-12-23T10:21:56.421Z,102338.64
2017-12-23T10:24:26.485Z,102335.52
2017-12-23T10:26:55.132Z,102338.17
2017-12-23T10:29:23.775Z,102323.19
2017-12-23T10:31:52.410Z,102334.59
2017-12-23T10:34:21.017Z,102340.77
2017-12-23T10:36:49.789Z,102337.63
2017-12-23T10:39:18.446Z,102336.80
2017-12-23T10:41:47.146Z,102330.69
2017-12-23T10:44:15.798Z,102335.50
2017-12-23T10:46:45.311Z,102324.98
2017-12-23T10:49:13.897Z,102330.68
2017-12-23T10:51:42.596Z,102329.73
2017-12-23T10:54:11.179Z,102332.41
2017-12-23T10:56:39.852Z,102328.89
2017-12-23T10:59:08.529Z,102332.80
2017-12-23T11:01:37.178Z,102324.39
2017-12-23T11:04:05.856Z,102330.21
2017-12-23T11:06:34.467Z,102325.33
2017-12-23T11:09:03.748Z,102309.91
2017-12-23T11:11:32.446Z,102311.66
2017-12-23T11:14:01.022Z,102298.88
2017-12-23T11:16:30.664Z,102290.87
2017-12-23T11:18:59.315Z,102287.32
2017-12-23T11:21:28.150Z,102282.88
2017-12-23T11:23:56.829Z,102273.63
2017-12-23T11:26:25.433Z,102277.59
2017-12-23T11:28:54.839Z,102273.14
2017-12-23T11:31:23.944Z,102277.15
2017-12-23T11:33:53.406Z,102272.64
2017-12-23T11:36:22.059Z,102267.85
2017-12-23T11:38:50.739Z,102262.53
2017-12-23T11:41:19.666Z,102266.02
2017-12-23T11:43:48.271Z,102258.97
2017-12-23T11:46:17.278Z,102264.22
2017-12-23T11:48:47.698Z,102250.08
2017-12-23T11:51:16.677Z,102256.22
2017-12-23T11:53:46.475Z,102243.83
2017-12-23T11:56:15.133Z,102246.47
2017-12-23T11:58:43.768Z,102236.80
2017-12-23T12:01:18.486Z,102238.45
2017-12-23T12:03:47.115Z,102224.78
2017-12-23T12:06:15.818Z,102230.11
2017-12-23T12:08:44.474Z,102227.91
2017-12-23T12:11:13.084Z,102224.81
2017-12-23T12:13:42.541Z,102218.68
2017-12-23T12:16:11.351Z,102216.28
2017-12-23T12:18:41.637Z,102210.14
2017-12-23T12:21:10.823Z,102212.34
2017-12-23T12:23:39.457Z,102206.61
2017-12-23T12:26:08.098Z,102202.11
2017-12-23T12:28:36.928Z,102211.06
2017-12-23T12:31:06.435Z,102207.05
2017-12-23T12:33:35.095Z,102196.42
2017-12-23T12:36:03.649Z,102204.77
2017-12-23T12:38:32.202Z,102206.58
2017-12-23T12:41:00.764Z,102197.30
2017-12-23T12:43:30.932Z,102195.17
2017-12-23T12:45:59.553Z,102188.44
2017-12-23T12:48:28.189Z,102190.77
2017-12-23T12:50:56.784Z,102161.20
2017-12-23T12:53:25.535Z,102177.05
2017-12-23T12:55:54.172Z,102181.38
2017-12-23T12:58:22.908Z,102177.09
2017-12-23T13:00:51.496Z,102170.47
2017-12-23T13:03:20.177Z,102178.69
2017-12-23T13:05:49.345Z,102180.02
2017-12-23T13:08:18.716Z,102182.75
2017-12-23T13:10:47.380Z,102180.09
2017-12-23T13:13:16.074Z,102178.77
2017-12-23T13:15:44.617Z,102180.98
2017-12-23T13:18:13.190Z,102179.56
2017-12-23T13:20:41.788Z,102175.73
2017-12-23T13:23:10.405Z,102171.75
2017-12-23T13:25:40.742Z,102166.42
2017-12-23T13:28:09.328Z,102159.31
2017-12-23T13:30:37.841Z,102155.78
2017-12-23T13:33:06.330Z,102152.34
2017-12-23T13:35:34.843Z,102151.86
2017-12-23T13:38:03.400Z,102150.45
2017-12-23T13:40:31.945Z,102157.55
2017-12-23T13:43:00.488Z,102151.23
2017-12-23T13:45:29.037Z,102149.13
2017-12-23T13:47:57.578Z,102148.59
2017-12-23T13:50:26.027Z,102149.52
2017-12-23T13:52:54.581Z,102145.95
2017-12-23T13:55:23.206Z,102150.88
2017-12-23T13:57:51.786Z,102151.33
2017-12-23T14:00:20.248Z,102160.95
2017-12-23T14:02:48.859Z,102150.84
2017-12-23T14:05:17.422Z,102160.99
2017-12-23T14:07:46.008Z,102157.41
2017-12-23T14:10:14.557Z,102159.09
2017-12-23T14:12:43.264Z,102148.50
2017-12-23T14:15:11.790Z,102156.89
2017-12-23T14:17:40.470Z,102156.05
2017-12-23T14:20:09.110Z,102163.16
2017-12-23T14:22:37.781Z,102162.23
2017-12-23T14:25:06.625Z,102155.69
2017-12-23T14:27:35.202Z,102153.00
2017-12-23T14:30:03.718Z,102163.95
2017-12-23T14:32:32.330Z,102164.04
2017-12-23T14:35:00.902Z,102156.92
2017-12-23T14:37:29.563Z,102151.20
2017-12-23T14:39:58.139Z,102150.70
2017-12-23T14:42:26.894Z,102154.20
2017-12-23T14:44:55.557Z,102146.34
2017-12-23T14:47:24.116Z,102146.24
2017-12-23T14:49:52.783Z,102151.98
2017-12-23T14:52:21.967Z,102153.39
2017-12-23T14:54:51.575Z,102147.27
2017-12-23T14:57:20.213Z,102140.06
2017-12-23T14:59:48.769Z,102144.97
2017-12-23T15:02:17.413Z,102156.84
2017-12-23T15:04:46.051Z,102154.28
2017-12-23T15:07:14.654Z,102154.64
2017-12-23T15:09:43.314Z,102156.00
2017-12-23T15:12:11.902Z,102151.49
2017-12-23T15:14:42.038Z,102155.07
2017-12-23T15:17:12.551Z,102144.44
2017-12-23T15:19:41.111Z,102144.00
2017-12-23T15:22:09.701Z,102149.82
2017-12-23T15:24:39.193Z,102150.22
2017-12-23T15:27:07.821Z,102153.70
2017-12-23T15:29:37.221Z,102156.84
2017-12-23T15:32:05.861Z,102158.61
2017-12-23T15:34:34.497Z,102160.28
2017-12-23T15:37:03.129Z,102161.21
2017-12-23T15:39:31.844Z,102157.23
2017-12-23T15:42:00.373Z,102166.51
2017-12-23T15:44:28.999Z,102165.67
2017-12-23T15:46:58.378Z,102165.22
2017-12-23T15:49:27.133Z,102166.59
2017-12-23T15:51:55.838Z,102164.30
2017-12-23T15:54:25.555Z,102167.34
2017-12-23T15:56:54.289Z,102158.52
2017-12-23T15:59:22.960Z,102155.47
2017-12-23T16:01:51.631Z,102151.05
2017-12-23T16:04:20.341Z,102151.94
2017-12-23T16:06:49.482Z,102163.41
2017-12-23T16:09:18.084Z,102157.24
2017-12-23T16:11:46.697Z,102154.14
2017-12-23T16:14:15.697Z,102158.52
2017-12-23T16:16:44.403Z,102162.13
2017-12-23T16:19:13.021Z,102158.52
2017-12-23T16:21:41.649Z,102153.22
2017-12-23T16:24:10.886Z,102154.19
2017-12-23T16:26:39.508Z,102153.22
2017-12-23T16:29:08.246Z,102150.17
2017-12-23T16:31:37.054Z,102152.81
2017-12-23T16:34:05.681Z,102154.05
2017-12-23T16:36:34.244Z,102148.36
2017-12-23T16:39:02.942Z,102151.89
2017-12-23T16:41:31.576Z,102156.30
2017-12-23T16:44:00.989Z,102152.64
2017-12-23T16:46:29.687Z,102148.89
2017-12-23T16:48:59.093Z,102147.47
2017-12-23T16:51:27.860Z,102142.28
2017-12-23T16:53:56.555Z,102147.09
2017-12-23T16:56:25.176Z,102141.39
2017-12-23T16:58:54.313Z,102133.93
2017-12-23T17:01:22.913Z,102134.73
2017-12-23T17:03:53.221Z,102119.76
2017-12-23T17:06:21.964Z,102111.37
2017-12-23T17:08:51.382Z,102110.05
2017-12-23T17:11:20.404Z,102105.25
2017-12-23T17:13:49.120Z,102101.22
2017-12-23T17:16:17.719Z,102103.04
2017-12-23T17:18:46.305Z,102111.47
2017-12-23T17:21:14.937Z,102112.79
2017-12-23T17:23:43.842Z,102108.47
2017-12-23T17:26:13.606Z,102104.81
2017-12-23T17:28:55.080Z,102102.69
2017-12-23T17:31:24.471Z,102095.09
2017-12-23T17:33:53.200Z,102090.33
2017-12-23T17:36:22.842Z,102087.20
2017-12-23T17:38:52.819Z,102085.03
2017-12-23T17:41:21.488Z,102077.64
2017-12-23T17:43:51.040Z,102070.57
2017-12-23T17:46:19.799Z,102063.95
2017-12-23T17:48:48.371Z,102067.92
2017-12-23T17:51:18.231Z,102057.29
2017-12-23T17:53:46.778Z,102057.28
2017-12-23T17:56:15.956Z,102054.64
2017-12-23T17:58:48.744Z,102042.33
2017-12-23T18:01:17.658Z,102059.00
2017-12-23T18:03:46.038Z,102060.42
2017-12-23T18:06:14.637Z,102067.42
2017-12-23T18:08:43.267Z,102063.51
2017-12-23T18:11:11.879Z,102069.20
2017-12-23T18:13:40.561Z,102071.36
2017-12-23T18:16:09.899Z,102067.92
2017-12-23T18:18:38.575Z,102069.54
2017-12-23T18:21:07.239Z,102061.50
2017-12-23T18:23:35.988Z,102061.16
2017-12-23T18:26:05.538Z,102051.94
2017-12-23T18:28:34.119Z,102044.88
2017-12-23T18:31:02.750Z,102051.89
2017-12-23T18:33:32.061Z,102051.84
2017-12-23T18:36:00.677Z,102047.92
2017-12-23T18:38:29.271Z,102049.14
2017-12-23T18:40:58.683Z,102055.76
2017-12-23T18:43:27.269Z,102057.43
2017-12-23T18:45:55.892Z,102054.00
2017-12-23T18:48:24.451Z,102047.70
2017-12-23T18:50:53.133Z,102049.09
2017-12-23T18:53:21.843Z,102049.13
2017-12-23T18:55:50.516Z,102039.52
2017-12-23T18:58:19.117Z,102039.87
2017-12-23T19:00:48.256Z,102048.98
2017-12-23T19:03:16.824Z,102040.74
2017-12-23T19:05:45.679Z,102038.39
2017-12-23T19:08:14.238Z,102033.14
2017-12-23T19:10:43.459Z,102034.52
2017-12-23T19:13:12.052Z,102036.72
2017-12-23T19:15:40.804Z,102034.92
2017-12-23T19:18:09.485Z,102038.44
2017-12-23T19:20:38.233Z,102023.11
2017-12-23T19:23:06.852Z,102026.58
2017-12-23T19:25:35.576Z,102031.05
2017-12-23T19:28:04.371Z,102021.28
2017-12-23T19:30:33.839Z,102017.74
2017-12-23T19:33:02.431Z,102022.70
2017-12-23T19:35:31.794Z,102024.75
2017-12-23T19:38:00.411Z,102024.86
2017-12-23T19:40:29.089Z,102025.59
2017-12-23T19:42:57.676Z,102019.30
2017-12-23T19:45:26.374Z,102017.63
2017-12-23T19:47:54.770Z,102021.99
2017-12-23T19:50:23.145Z,102013.23
2017-12-23T19:52:51.474Z,102015.53
2017-12-23T19:58:13.298Z,102025.48
2017-12-23T20:00:41.658Z,102025.59
2017-12-23T20:03:09.991Z,102024.98
2017-12-23T20:05:38.343Z,102013.67
2017-12-23T20:08:07.661Z,102017.64
2017-12-23T20:10:36.018Z,102031.77
2017-12-23T20:13:04.354Z,102028.73
2017-12-23T20:15:32.704Z,102020.30
2017-12-23T20:18:01.125Z,102035.73
2017-12-23T20:20:29.451Z,102033.04
2017-12-23T20:22:57.995Z,102022.94
2017-12-23T20:25:27.211Z,102027.29
2017-12-23T20:27:56.370Z,102024.75
2017-12-23T20:30:24.713Z,102020.30
2017-12-23T20:32:53.250Z,102017.30
2017-12-23T20:35:21.697Z,102007.60
2017-12-23T20:37:50.075Z,102015.09
2017-12-23T20:40:18.414Z,102008.47
2017-12-23T20:42:46.777Z,102007.59
2017-12-23T20:45:16.110Z,102011.52
2017-12-23T20:47:44.467Z,102009.26
2017-12-23T20:50:12.827Z,102000.81
2017-12-23T20:52:41.338Z,102000.88
2017-12-23T20:55:09.673Z,101997.33
2017-12-23T20:57:38.036Z,101992.97
2017-12-23T21:00:06.366Z,101985.47
2017-12-23T21:02:34.806Z,101987.30
2017-12-23T21:05:03.258Z,101990.22
2017-12-23T21:07:31.610Z,101999.20
2017-12-23T21:09:59.943Z,101994.23
2017-12-23T21:12:28.344Z,101996.07
2017-12-23T21:14:56.698Z,101985.91
2017-12-23T21:17:25.057Z,101968.15
2017-12-23T21:19:53.388Z,101973.55
2017-12-23T21:22:21.734Z,101966.48
2017-12-23T21:24:50.097Z,101970.02
2017-12-23T21:27:18.775Z,101965.11
2017-12-23T21:29:47.102Z,101964.94
2017-12-23T21:32:15.454Z,101972.22
2017-12-23T21:34:43.834Z,101974.38
2017-12-23T21:37:12.402Z,101964.28
2017-12-23T21:39:40.741Z,101963.78
2017-12-23T21:42:09.086Z,101957.60
2017-12-23T21:44:37.421Z,101948.38
2017-12-23T21:47:06.271Z,101950.59
2017-12-23T21:49:34.589Z,101944.75
2017-12-23T21:52:04.263Z,101955.45
2017-12-23T21:54:32.595Z,101946.52
2017-12-23T21:57:00.984Z,101946.90
2017-12-23T21:59:29.330Z,101950.10
2017-12-23T22:01:57.678Z,101951.42
2017-12-23T22:04:26.006Z,101943.91
2017-12-23T22:06:54.358Z,101944.80
2017-12-23T22:09:22.715Z,101939.05
2017-12-23T22:11:51.046Z,101943.80
2017-12-23T22:14:19.378Z,101933.75
2017-12-23T22:16:47.730Z,101943.86
2017-12-23T22:19:16.064Z,101943.48
2017-12-23T22:21:44.415Z,101937.28
2017-12-23T22:24:12.757Z,101943.37
2017-12-23T22:26:41.091Z,101933.59
2017-12-23T22:29:09.439Z,101922.60
2017-12-23T22:31:37.776Z,101929.68
2017-12-23T22:34:06.122Z,101929.30
2017-12-23T22:36:34.453Z,101919.97
2017-12-23T22:39:02.806Z,101919.58
2017-12-23T22:41:31.133Z,101919.19
2017-12-23T22:43:59.534Z,101915.33
2017-12-23T22:46:27.815Z,101903.69
2017-12-23T22:48:56.162Z,101908.60
2017-12-23T22:51:24.490Z,101915.03
2017-12-23T22:53:52.842Z,101919.95
2017-12-23T22:56:21.170Z,101918.19
2017-12-23T22:58:49.518Z,101916.00
2017-12-23T23:01:17.922Z,101910.20
2017-12-23T23:03:46.274Z,101905.83
2017-12-23T23:06:14.601Z,101914.22
2017-12-23T23:08:42.957Z,101906.16
2017-12-23T23:11:11.277Z,101901.73
2017-12-23T23:13:39.625Z,101911.39
2017-12-23T23:16:07.955Z,101910.95
2017-12-23T23:18:36.302Z,101901.19
2017-12-23T23:21:04.629Z,101910.27
2017-12-23T23:23:32.978Z,101912.16
2017-12-23T23:26:01.306Z,101909.83
2017-12-23T23:28:29.659Z,101916.93
2017-12-23T23:30:57.987Z,101915.13
2017-12-23T23:33:26.334Z,101913.91
2017-12-23T23:35:54.675Z,101929.62
2017-12-23T23:38:23.029Z,101923.12
2017-12-23T23:40:51.357Z,101919.86
2017-12-23T23:43:19.706Z,101923.05
2017-12-23T23:45:48.030Z,101933.17
2017-12-23T23:48:16.374Z,101918.65
2017-12-23T23:50:44.703Z,101919.58
2017-12-23T23:53:13.050Z,101910.32
2017-12-23T23:55:41.379Z,101894.29
2017-12-23T23:58:09.743Z,101899.98
